createdAt,value
2023-03-16T00:03:35.419Z,100723.88
2023-03-16T00:08:39.488Z,100732.69
2023-03-16T00:13:43.196Z,100728.31
2023-03-16T00:18:46.136Z,100696.91
2023-03-16T00:23:48.949Z,100725.28
2023-03-16T00:28:54.679Z,100731.28
2023-03-16T00:33:57.374Z,100728.03
2023-03-16T00:39:00.264Z,100744.50
2023-03-16T00:44:03.000Z,100743.41
2023-03-16T00:49:05.844Z,100773.16
2023-03-16T00:54:08.911Z,100786.75
2023-03-16T00:59:13.394Z,100795.22
2023-03-16T01:04:16.189Z,100803.47
2023-03-16T01:09:19.052Z,100801.38
2023-03-16T01:14:22.782Z,100824.22
2023-03-16T01:19:25.596Z,100821.38
2023-03-16T01:24:28.824Z,100825.34
2023-03-16T01:29:32.464Z,100820.66
2023-03-16T01:34:35.572Z,100812.47
2023-03-16T01:39:39.212Z,100827.38
2023-03-16T01:44:57.594Z,100834.84
2023-03-16T01:50:07.897Z,100861.06
2023-03-16T01:55:15.324Z,100857.78
2023-03-16T02:00:20.260Z,100871.38
2023-03-16T02:06:05.366Z,100881.41
2023-03-16T02:11:10.575Z,100867.91
2023-03-16T02:16:27.188Z,100873.44
2023-03-16T02:21:46.379Z,100892.72
2023-03-16T02:26:54.245Z,100891.97
2023-03-16T02:32:03.037Z,100900.00
2023-03-16T02:37:05.671Z,100907.50
2023-03-16T02:42:12.919Z,100908.38
2023-03-16T02:47:42.106Z,100907.09
2023-03-16T02:52:45.140Z,100920.13
2023-03-16T02:57:48.761Z,100911.28
2023-03-16T03:02:53.075Z,100906.38
2023-03-16T03:07:55.927Z,100916.59
2023-03-16T03:12:59.651Z,100924.59
2023-03-16T03:18:03.258Z,100913.53
2023-03-16T03:23:07.395Z,100930.56
2023-03-16T03:28:10.124Z,100927.06
2023-03-16T03:33:13.364Z,100925.19
2023-03-16T03:38:16.232Z,100929.16
2023-03-16T03:43:21.510Z,100934.78
2023-03-16T03:48:26.063Z,100937.88
2023-03-16T03:53:28.927Z,100938.13
2023-03-16T03:58:49.914Z,100956.72
2023-03-16T04:04:02.145Z,100943.06
2023-03-16T04:09:05.876Z,100942.16
2023-03-16T04:14:09.033Z,100948.09
2023-03-16T04:19:14.388Z,100945.66
2023-03-16T04:24:18.466Z,100961.50
2023-03-16T04:29:21.501Z,100958.41
2023-03-16T04:34:25.436Z,100958.88
2023-03-16T04:39:32.211Z,100962.84
2023-03-16T04:44:44.420Z,100959.59
2023-03-16T04:49:51.835Z,100965.19
2023-03-16T04:54:55.132Z,100969.38
2023-03-16T04:59:57.964Z,100971.38
2023-03-16T05:05:07.971Z,100970.00
2023-03-16T05:10:14.506Z,100969.25
2023-03-16T05:15:17.569Z,100961.66
2023-03-16T05:20:26.333Z,100948.84
2023-03-16T05:25:33.318Z,100976.97
2023-03-16T05:30:39.888Z,100974.91
2023-03-16T05:35:46.467Z,100945.44
2023-03-16T05:40:53.387Z,100970.13
2023-03-16T05:46:09.054Z,100970.34
2023-03-16T05:51:14.553Z,100975.34
2023-03-16T05:56:18.444Z,100974.94
2023-03-16T06:01:22.733Z,100993.34
2023-03-16T06:06:26.574Z,100988.63
2023-03-16T06:11:41.179Z,100985.75
2023-03-16T06:16:44.176Z,100994.75
2023-03-16T06:21:47.095Z,100998.78
2023-03-16T06:26:49.965Z,100991.69
2023-03-16T06:31:55.029Z,100994.81
2023-03-16T06:36:59.168Z,100998.66
2023-03-16T06:42:04.817Z,101006.66
2023-03-16T06:47:08.721Z,101003.84
2023-03-16T06:52:14.280Z,101004.53
2023-03-16T06:57:16.834Z,101007.72
2023-03-16T07:02:20.266Z,101001.81
2023-03-16T07:07:24.856Z,101013.31
2023-03-16T07:12:29.270Z,101012.59
2023-03-16T07:17:32.736Z,101005.94
2023-03-16T07:22:38.973Z,100995.59
2023-03-16T07:27:45.822Z,101000.59
2023-03-16T07:32:52.133Z,101000.66
2023-03-16T07:37:57.851Z,100992.22
2023-03-16T07:43:01.542Z,101009.44
2023-03-16T07:48:10.670Z,101011.69
2023-03-16T07:53:23.888Z,100998.44
2023-03-16T07:58:35.056Z,101017.63
2023-03-16T08:03:38.094Z,101016.94
2023-03-16T08:08:43.287Z,101015.16
2023-03-16T08:13:54.858Z,100998.78
2023-03-16T08:18:57.586Z,101005.19
2023-03-16T08:24:00.648Z,101000.38
2023-03-16T08:29:04.228Z,101009.44
2023-03-16T08:34:11.325Z,101020.13
2023-03-16T08:39:19.165Z,101008.63
2023-03-16T08:44:25.093Z,101019.53
2023-03-16T08:49:29.880Z,101016.78
2023-03-16T08:54:49.712Z,101033.31
2023-03-16T08:59:59.349Z,101033.03
2023-03-16T09:05:02.641Z,101031.72
2023-03-16T09:10:07.403Z,101035.81
2023-03-16T09:15:12.524Z,101043.22
2023-03-16T09:20:33.228Z,101051.31
2023-03-16T09:25:36.220Z,101033.41
2023-03-16T09:30:38.893Z,101050.09
2023-03-16T09:35:41.692Z,101056.78
2023-03-16T09:40:47.057Z,101060.44
2023-03-16T09:46:02.253Z,101062.34
2023-03-16T09:51:07.063Z,101061.16
2023-03-16T09:56:23.247Z,101057.34
2023-03-16T10:01:48.648Z,101068.66
2023-03-16T10:07:01.337Z,101064.94
2023-03-16T10:12:07.006Z,101061.59
2023-03-16T10:17:33.628Z,101067.00
2023-03-16T10:22:38.955Z,101067.63
2023-03-16T10:27:45.216Z,101072.91
2023-03-16T10:32:48.613Z,101063.94
2023-03-16T10:37:53.237Z,101072.81
2023-03-16T10:42:56.291Z,101078.81
2023-03-16T10:48:15.777Z,101093.84
2023-03-16T10:53:30.521Z,101090.34
2023-03-16T10:58:38.008Z,101102.53
2023-03-16T11:03:42.085Z,101103.72
2023-03-16T11:08:46.514Z,101107.91
2023-03-16T11:13:49.490Z,101117.06
2023-03-16T11:18:58.366Z,101116.81
2023-03-16T11:24:04.907Z,101118.19
2023-03-16T11:29:19.189Z,101122.28
2023-03-16T11:34:28.942Z,101116.25
2023-03-16T11:39:40.739Z,101123.19
2023-03-16T11:45:10.421Z,101129.44
2023-03-16T11:50:18.996Z,101139.06
2023-03-16T11:55:44.809Z,101145.31
2023-03-16T12:01:09.495Z,101145.91
2023-03-16T12:06:40.972Z,101155.00
2023-03-16T12:11:52.577Z,101160.72
2023-03-16T12:17:08.810Z,101167.19
2023-03-16T12:22:17.636Z,101173.28
2023-03-16T12:27:33.049Z,101176.78
2023-03-16T12:32:45.023Z,101179.63
2023-03-16T12:38:08.629Z,101198.53
2023-03-16T12:43:43.737Z,101182.34
2023-03-16T12:48:54.893Z,101186.97
2023-03-16T12:53:59.489Z,101200.34
2023-03-16T12:59:06.079Z,101190.72
2023-03-16T13:04:17.865Z,101193.25
2023-03-16T13:09:24.672Z,101221.56
2023-03-16T13:14:42.144Z,101221.56
2023-03-16T13:19:48.161Z,101213.63
2023-03-16T13:24:56.536Z,101224.22
2023-03-16T13:30:02.382Z,101228.06
2023-03-16T13:35:10.292Z,101231.63
2023-03-16T13:40:25.560Z,101229.69
2023-03-16T13:45:38.900Z,101246.75
2023-03-16T13:50:43.003Z,101243.41
2023-03-16T13:55:47.403Z,101245.44
2023-03-16T14:00:50.357Z,101256.31
2023-03-16T14:05:53.914Z,101261.63
2023-03-16T14:11:01.473Z,101269.94
2023-03-16T14:16:13.278Z,101264.81
2023-03-16T14:21:18.773Z,101282.84
2023-03-16T14:26:25.152Z,101269.81
2023-03-16T14:31:40.138Z,101280.34
2023-03-16T14:36:42.664Z,101276.59
2023-03-16T14:41:50.131Z,101273.06
2023-03-16T14:46:57.367Z,101287.66
2023-03-16T14:52:03.072Z,101284.41
2023-03-16T14:57:06.411Z,101310.31
2023-03-16T15:02:31.141Z,101301.63
2023-03-16T15:07:45.776Z,101304.00
2023-03-16T15:12:54.448Z,101310.44
2023-03-16T15:17:57.305Z,101318.44
2023-03-16T15:23:00.266Z,101330.38
2023-03-16T15:28:16.349Z,101315.56
2023-03-16T15:33:19.776Z,101338.28
2023-03-16T15:38:28.007Z,101336.78
2023-03-16T15:43:32.335Z,101344.53
2023-03-16T15:48:35.134Z,101345.44
2023-03-16T15:53:43.662Z,101352.69
2023-03-16T15:58:47.195Z,101348.44
2023-03-16T16:03:53.414Z,101350.31
2023-03-16T16:08:56.494Z,101354.59
2023-03-16T16:13:59.989Z,101358.06
2023-03-16T16:19:02.809Z,101352.63
2023-03-16T16:24:06.180Z,101365.13
2023-03-16T16:29:22.721Z,101365.72
2023-03-16T16:34:25.950Z,101374.34
2023-03-16T16:39:28.842Z,101380.59
2023-03-16T16:44:34.537Z,101376.06
2023-03-16T16:49:39.056Z,101374.91
2023-03-16T16:54:41.833Z,101377.00
2023-03-16T16:59:47.430Z,101374.34
2023-03-16T17:04:51.109Z,101383.97
2023-03-16T17:09:53.830Z,101384.56
2023-03-16T17:14:56.794Z,101381.13
2023-03-16T17:19:59.832Z,101398.06
2023-03-16T17:25:02.604Z,101401.19
2023-03-16T17:30:15.076Z,101390.53
2023-03-16T17:35:18.224Z,101404.88
2023-03-16T17:40:24.266Z,101415.22
2023-03-16T17:45:28.725Z,101408.22
2023-03-16T17:50:32.644Z,101415.47
2023-03-16T17:55:35.497Z,101417.06
2023-03-16T18:00:39.948Z,101425.25
2023-03-16T18:05:44.114Z,101425.28
2023-03-16T18:10:48.505Z,101431.06
2023-03-16T18:15:52.347Z,101419.03
2023-03-16T18:20:57.284Z,101428.16
2023-03-16T18:26:09.341Z,101425.19
2023-03-16T18:31:21.705Z,101429.66
2023-03-16T18:36:30.514Z,101425.13
2023-03-16T18:41:34.945Z,101442.22
2023-03-16T18:46:38.836Z,101422.94
2023-03-16T18:51:43.722Z,101438.34
2023-03-16T18:56:46.383Z,101437.31
2023-03-16T19:01:49.156Z,101437.19
2023-03-16T19:06:54.461Z,101429.53
2023-03-16T19:11:57.793Z,101408.22
2023-03-16T19:17:00.832Z,101435.28
2023-03-16T19:22:12.804Z,101434.41
2023-03-16T19:27:26.514Z,101436.22
2023-03-16T19:39:42.556Z,101436.81
2023-03-16T19:44:48.545Z,101430.09
2023-03-16T19:49:51.462Z,101438.00
2023-03-16T19:54:54.516Z,101431.41
2023-03-16T19:59:57.865Z,101435.38
2023-03-16T20:05:00.610Z,101436.56
2023-03-16T20:10:04.026Z,101433.91
2023-03-16T20:15:07.594Z,101424.22
2023-03-16T20:20:29.084Z,101426.13
2023-03-16T20:25:33.131Z,101432.16
2023-03-16T20:30:36.448Z,101416.41
2023-03-16T20:35:39.118Z,101427.88
2023-03-16T20:40:45.499Z,101420.38
2023-03-16T20:45:48.501Z,101401.25
2023-03-16T20:50:52.962Z,101421.53
2023-03-16T20:55:56.767Z,101418.88
2023-03-16T21:01:01.406Z,101417.13
2023-03-16T21:06:10.497Z,101423.44
2023-03-16T21:11:23.088Z,101426.66
2023-03-16T21:16:26.212Z,101426.19
2023-03-16T21:21:29.143Z,101428.56
2023-03-16T21:26:33.479Z,101442.34
2023-03-16T21:31:36.527Z,101450.28
2023-03-16T21:36:39.280Z,101449.22
2023-03-16T21:41:42.197Z,101447.47
2023-03-16T21:46:47.566Z,101439.38
2023-03-16T21:51:51.173Z,101463.31
2023-03-16T21:56:53.949Z,101458.91
2023-03-16T22:02:02.040Z,101468.72
2023-03-16T22:07:12.827Z,101467.38
2023-03-16T22:12:16.251Z,101461.44
2023-03-16T22:17:22.805Z,101469.06
2023-03-16T22:22:25.564Z,101476.25
2023-03-16T22:27:30.430Z,101482.06
2023-03-16T22:32:33.238Z,101480.00
2023-03-16T22:37:36.432Z,101476.69
2023-03-16T22:42:40.136Z,101479.34
2023-03-16T22:47:42.895Z,101478.47
2023-03-16T22:52:47.676Z,101486.66
2023-03-16T22:58:01.124Z,101493.84
2023-03-16T23:03:04.684Z,101496.28
2023-03-16T23:08:13.373Z,101488.44
2023-03-16T23:13:19.220Z,101500.56
2023-03-16T23:18:26.503Z,101500.50
2023-03-16T23:23:29.192Z,101498.34
2023-03-16T23:28:32.061Z,101504.28
2023-03-16T23:33:34.758Z,101496.44
2023-03-16T23:38:37.815Z,101507.34
2023-03-16T23:43:42.089Z,101506.78
2023-03-16T23:48:46.325Z,101502.94
2023-03-16T23:53:50.072Z,101511.84
2023-03-16T23:58:52.965Z,101501.06
